Terminal Aerodrome Forecast
Issued by NWS Twin Cities, MN

Home | Current Version | Previous Version | Text Only | Print | Product List | Glossary Off
Versions: 1 2 3 4 5 6 7 8 9 10 11 12 13 14 15 16 17 18 19 20 21 22 23 24 25 26

000
FTUS43 KMPX 280851 AAA
TAFMSP
TAF AMD
KMSP 280851Z 2809/2912 06011G20KT P6SM -RA OVC035
      TEMPO 2809/2812 5SM -RA BR OVC025
     FM281500 06011G19KT P6SM -SHRA OVC050
     FM282000 05008KT P6SM OVC070
     FM290600 03005KT P6SM OVC120=

USA.gov is the U.S. government's official web portal to all federal, state and local government web resources and services.